Terminal Aerodrome Forecast
Issued by NWS

Home | Current Version | Previous Version | Text Only | Print | Product List | Glossary On
Versions: 1 2 3 4 5 6 7 8 9 10 11 12 13 14 15 16 17 18 19 20 21 22 23 24 25 26 27 28 29 30 31 32 33 34 35 36 37 38 39 40 41 42 43 44 45 46 47 48 49 50
000
FTUS45 KBOU 250524
TAFBJC
TAF
KBJC 250524Z 2506/2606 26007KT P6SM FEW120 SCT200
     FM251300 29010KT P6SM FEW080 BKN200
     FM251700 32012KT P6SM FEW080 BKN200
     FM252000 01015G22KT P6SM VCTS SCT070CB BKN120 PROB30 2520/2524
      VRB20G32KT -TSRA BKN060CB
     FM260000 04009KT P6SM VCTS SCT060CB BKN100 PROB30 2600/2602
      -SHRA BKN050
     FM260200 08006KT P6SM SCT060 BKN100=

USA.gov is the U.S. government's official web portal to all federal, state and local government web resources and services.